sensor_id;sensor_type;location;lat;lon;timestamp;P1;durP1;ratioP1;P2;durP2;ratioP2
9117;SDS011;4594;50.994;7.126;2024-03-23T00:54:03;9.33;;;5.43;;
9117;SDS011;4594;50.994;7.126;2024-03-23T00:56:29;12.27;;;6.23;;
9117;SDS011;4594;50.994;7.126;2024-03-23T00:58:55;8.50;;;5.77;;
9117;SDS011;4594;50.994;7.126;2024-03-23T01:01:21;11.63;;;6.20;;
9117;SDS011;4594;50.994;7.126;2024-03-23T01:03:46;8.70;;;5.67;;
9117;SDS011;4594;50.994;7.126;2024-03-23T01:06:12;11.60;;;6.20;;
9117;SDS011;4594;50.994;7.126;2024-03-23T01:08:38;8.03;;;5.30;;
9117;SDS011;4594;50.994;7.126;2024-03-23T01:11:03;10.93;;;5.57;;
9117;SDS011;4594;50.994;7.126;2024-03-23T01:13:29;12.70;;;5.33;;
9117;SDS011;4594;50.994;7.126;2024-03-23T01:15:56;9.57;;;5.97;;
9117;SDS011;4594;50.994;7.126;2024-03-23T01:18:23;7.40;;;5.30;;
9117;SDS011;4594;50.994;7.126;2024-03-23T01:20:51;11.60;;;5.67;;
9117;SDS011;4594;50.994;7.126;2024-03-23T01:23:18;11.57;;;6.23;;
9117;SDS011;4594;50.994;7.126;2024-03-23T01:25:44;13.87;;;6.33;;
9117;SDS011;4594;50.994;7.126;2024-03-23T01:28:20;8.37;;;6.10;;
9117;SDS011;4594;50.994;7.126;2024-03-23T01:30:46;10.03;;;5.73;;
9117;SDS011;4594;50.994;7.126;2024-03-23T01:33:12;10.27;;;6.13;;
9117;SDS011;4594;50.994;7.126;2024-03-23T01:35:38;5.97;;;5.03;;
9117;SDS011;4594;50.994;7.126;2024-03-23T01:38:04;7.03;;;4.83;;
9117;SDS011;4594;50.994;7.126;2024-03-23T01:40:30;10.80;;;5.53;;
9117;SDS011;4594;50.994;7.126;2024-03-23T01:45:24;7.87;;;5.43;;
9117;SDS011;4594;50.994;7.126;2024-03-23T01:47:51;7.00;;;4.50;;
9117;SDS011;4594;50.994;7.126;2024-03-23T01:50:18;8.77;;;5.43;;
9117;SDS011;4594;50.994;7.126;2024-03-23T01:52:48;10.23;;;4.63;;
9117;SDS011;4594;50.994;7.126;2024-03-23T01:55:15;8.93;;;4.87;;
9117;SDS011;4594;50.994;7.126;2024-03-23T01:57:41;10.97;;;4.90;;
9117;SDS011;4594;50.994;7.126;2024-03-23T02:00:07;5.23;;;4.27;;
9117;SDS011;4594;50.994;7.126;2024-03-23T02:02:40;5.90;;;4.83;;
9117;SDS011;4594;50.994;7.126;2024-03-23T02:05:11;10.00;;;4.20;;
9117;SDS011;4594;50.994;7.126;2024-03-23T02:07:38;5.23;;;4.10;;
9117;SDS011;4594;50.994;7.126;2024-03-23T02:10:10;7.43;;;4.03;;
9117;SDS011;4594;50.994;7.126;2024-03-23T02:12:40;7.20;;;4.03;;
9117;SDS011;4594;50.994;7.126;2024-03-23T02:15:06;6.53;;;4.00;;
9117;SDS011;4594;50.994;7.126;2024-03-23T02:17:34;10.70;;;3.80;;
9117;SDS011;4594;50.994;7.126;2024-03-23T02:20:00;7.87;;;3.83;;
9117;SDS011;4594;50.994;7.126;2024-03-23T02:22:38;7.00;;;3.80;;
9117;SDS011;4594;50.994;7.126;2024-03-23T02:25:04;3.27;;;2.90;;
9117;SDS011;4594;50.994;7.126;2024-03-23T02:27:31;6.27;;;3.13;;
9117;SDS011;4594;50.994;7.126;2024-03-23T02:29:58;6.23;;;3.50;;
9117;SDS011;4594;50.994;7.126;2024-03-23T02:32:23;3.37;;;3.07;;
9117;SDS011;4594;50.994;7.126;2024-03-23T02:34:49;3.10;;;2.83;;
9117;SDS011;4594;50.994;7.126;2024-03-23T02:37:15;4.40;;;3.33;;
9117;SDS011;4594;50.994;7.126;2024-03-23T02:39:40;3.57;;;3.07;;
9117;SDS011;4594;50.994;7.126;2024-03-23T02:42:06;16.07;;;3.80;;
9117;SDS011;4594;50.994;7.126;2024-03-23T02:44:32;2.80;;;2.60;;
9117;SDS011;4594;50.994;7.126;2024-03-23T02:46:57;5.70;;;3.07;;
9117;SDS011;4594;50.994;7.126;2024-03-23T02:49:23;3.10;;;2.90;;
9117;SDS011;4594;50.994;7.126;2024-03-23T02:51:49;6.47;;;3.63;;
9117;SDS011;4594;50.994;7.126;2024-03-23T02:54:15;3.50;;;2.97;;
9117;SDS011;4594;50.994;7.126;2024-03-23T02:56:41;4.13;;;2.90;;
9117;SDS011;4594;50.994;7.126;2024-03-23T02:59:06;4.43;;;3.33;;
9117;SDS011;4594;50.994;7.126;2024-03-23T03:01:32;4.30;;;3.13;;
9117;SDS011;4594;50.994;7.126;2024-03-23T03:03:58;6.93;;;3.27;;
9117;SDS011;4594;50.994;7.126;2024-03-23T03:06:24;4.97;;;3.00;;
9117;SDS011;4594;50.994;7.126;2024-03-23T03:08:50;2.90;;;2.60;;
9117;SDS011;4594;50.994;7.126;2024-03-23T03:11:16;5.07;;;3.00;;
9117;SDS011;4594;50.994;7.126;2024-03-23T03:13:41;4.47;;;3.13;;
9117;SDS011;4594;50.994;7.126;2024-03-23T03:16:10;2.40;;;2.30;;
9117;SDS011;4594;50.994;7.126;2024-03-23T03:18:36;4.03;;;2.67;;
9117;SDS011;4594;50.994;7.126;2024-03-23T03:21:03;3.10;;;2.80;;
9117;SDS011;4594;50.994;7.126;2024-03-23T03:23:31;2.83;;;2.63;;
9117;SDS011;4594;50.994;7.126;2024-03-23T03:25:56;5.03;;;2.87;;
9117;SDS011;4594;50.994;7.126;2024-03-23T03:28:22;4.73;;;2.47;;
9117;SDS011;4594;50.994;7.126;2024-03-23T03:30:49;6.90;;;2.90;;
9117;SDS011;4594;50.994;7.126;2024-03-23T03:33:14;5.50;;;2.77;;
9117;SDS011;4594;50.994;7.126;2024-03-23T03:35:40;2.83;;;2.50;;
9117;SDS011;4594;50.994;7.126;2024-03-23T03:38:06;3.60;;;2.60;;
9117;SDS011;4594;50.994;7.126;2024-03-23T03:40:31;4.87;;;2.70;;
9117;SDS011;4594;50.994;7.126;2024-03-23T03:42:57;3.17;;;2.77;;
9117;SDS011;4594;50.994;7.126;2024-03-23T03:45:23;8.37;;;3.30;;
9117;SDS011;4594;50.994;7.126;2024-03-23T03:47:48;3.97;;;3.00;;
9117;SDS011;4594;50.994;7.126;2024-03-23T03:50:14;3.30;;;3.00;;
9117;SDS011;4594;50.994;7.126;2024-03-23T03:52:40;6.73;;;3.20;;
9117;SDS011;4594;50.994;7.126;2024-03-23T03:55:13;4.27;;;3.03;;
9117;SDS011;4594;50.994;7.126;2024-03-23T03:57:40;7.50;;;3.10;;
9117;SDS011;4594;50.994;7.126;2024-03-23T04:00:05;4.93;;;2.80;;
9117;SDS011;4594;50.994;7.126;2024-03-23T04:02:36;4.60;;;2.87;;
9117;SDS011;4594;50.994;7.126;2024-03-23T04:05:04;2.63;;;2.43;;
9117;SDS011;4594;50.994;7.126;2024-03-23T04:07:31;6.73;;;2.93;;
9117;SDS011;4594;50.994;7.126;2024-03-23T04:09:57;5.27;;;3.13;;
9117;SDS011;4594;50.994;7.126;2024-03-23T04:12:23;6.63;;;3.03;;
9117;SDS011;4594;50.994;7.126;2024-03-23T04:14:49;4.57;;;3.23;;
9117;SDS011;4594;50.994;7.126;2024-03-23T04:17:14;7.57;;;3.30;;
9117;SDS011;4594;50.994;7.126;2024-03-23T04:19:41;6.97;;;3.17;;
9117;SDS011;4594;50.994;7.126;2024-03-23T04:22:07;5.07;;;2.80;;
9117;SDS011;4594;50.994;7.126;2024-03-23T04:24:33;4.60;;;2.87;;
9117;SDS011;4594;50.994;7.126;2024-03-23T04:26:59;5.67;;;3.10;;
9117;SDS011;4594;50.994;7.126;2024-03-23T04:29:24;3.87;;;3.20;;
9117;SDS011;4594;50.994;7.126;2024-03-23T04:31:51;4.57;;;3.50;;
9117;SDS011;4594;50.994;7.126;2024-03-23T04:34:17;8.00;;;3.67;;
9117;SDS011;4594;50.994;7.126;2024-03-23T04:36:43;7.00;;;4.30;;
9117;SDS011;4594;50.994;7.126;2024-03-23T04:39:09;6.47;;;3.93;;
9117;SDS011;4594;50.994;7.126;2024-03-23T04:41:35;4.93;;;3.83;;
9117;SDS011;4594;50.994;7.126;2024-03-23T04:44:01;9.80;;;4.00;;
9117;SDS011;4594;50.994;7.126;2024-03-23T04:46:27;7.37;;;3.57;;
9117;SDS011;4594;50.994;7.126;2024-03-23T04:48:52;4.40;;;3.87;;
9117;SDS011;4594;50.994;7.126;2024-03-23T04:51:21;7.73;;;4.17;;
9117;SDS011;4594;50.994;7.126;2024-03-23T04:53:48;6.40;;;3.87;;
9117;SDS011;4594;50.994;7.126;2024-03-23T04:56:15;6.60;;;3.60;;
9117;SDS011;4594;50.994;7.126;2024-03-23T04:58:42;4.13;;;3.30;;
9117;SDS011;4594;50.994;7.126;2024-03-23T05:01:08;6.93;;;4.03;;
9117;SDS011;4594;50.994;7.126;2024-03-23T05:03:35;6.90;;;3.83;;
9117;SDS011;4594;50.994;7.126;2024-03-23T05:06:01;5.40;;;3.63;;
9117;SDS011;4594;50.994;7.126;2024-03-23T05:08:27;4.00;;;3.27;;
9117;SDS011;4594;50.994;7.126;2024-03-23T05:10:52;4.40;;;3.37;;
9117;SDS011;4594;50.994;7.126;2024-03-23T05:13:18;7.17;;;3.60;;
9117;SDS011;4594;50.994;7.126;2024-03-23T05:15:44;7.80;;;3.87;;
9117;SDS011;4594;50.994;7.126;2024-03-23T05:18:17;7.30;;;3.80;;
9117;SDS011;4594;50.994;7.126;2024-03-23T05:20:42;5.93;;;3.80;;
9117;SDS011;4594;50.994;7.126;2024-03-23T05:23:09;7.53;;;4.03;;
9117;SDS011;4594;50.994;7.126;2024-03-23T05:25:34;6.77;;;3.87;;
9117;SDS011;4594;50.994;7.126;2024-03-23T05:28:00;6.93;;;3.50;;
9117;SDS011;4594;50.994;7.126;2024-03-23T05:30:26;6.80;;;3.10;;
9117;SDS011;4594;50.994;7.126;2024-03-23T05:32:51;5.03;;;3.33;;
9117;SDS011;4594;50.994;7.126;2024-03-23T05:35:17;6.57;;;3.20;;
9117;SDS011;4594;50.994;7.126;2024-03-23T05:37:44;4.67;;;2.97;;
9117;SDS011;4594;50.994;7.126;2024-03-23T05:40:09;5.90;;;3.27;;
9117;SDS011;4594;50.994;7.126;2024-03-23T05:42:37;4.07;;;3.10;;
9117;SDS011;4594;50.994;7.126;2024-03-23T05:45:04;6.73;;;3.17;;
9117;SDS011;4594;50.994;7.126;2024-03-23T05:47:31;3.47;;;2.67;;
9117;SDS011;4594;50.994;7.126;2024-03-23T05:49:57;8.83;;;3.27;;
9117;SDS011;4594;50.994;7.126;2024-03-23T05:52:23;8.73;;;3.30;;
9117;SDS011;4594;50.994;7.126;2024-03-23T05:54:50;11.00;;;3.50;;
9117;SDS011;4594;50.994;7.126;2024-03-23T05:57:16;6.20;;;3.23;;
9117;SDS011;4594;50.994;7.126;2024-03-23T05:59:44;5.17;;;3.13;;
9117;SDS011;4594;50.994;7.126;2024-03-23T06:02:09;5.70;;;2.97;;
9117;SDS011;4594;50.994;7.126;2024-03-23T06:04:35;4.23;;;3.10;;
9117;SDS011;4594;50.994;7.126;2024-03-23T06:07:01;6.60;;;3.40;;
9117;SDS011;4594;50.994;7.126;2024-03-23T06:09:27;4.20;;;2.93;;
9117;SDS011;4594;50.994;7.126;2024-03-23T06:11:56;5.00;;;2.97;;
9117;SDS011;4594;50.994;7.126;2024-03-23T06:14:22;4.70;;;2.97;;
9117;SDS011;4594;50.994;7.126;2024-03-23T06:16:47;10.47;;;3.10;;
9117;SDS011;4594;50.994;7.126;2024-03-23T06:19:14;10.17;;;3.40;;
9117;SDS011;4594;50.994;7.126;2024-03-23T06:21:42;10.73;;;3.50;;
9117;SDS011;4594;50.994;7.126;2024-03-23T06:24:10;5.00;;;3.10;;
9117;SDS011;4594;50.994;7.126;2024-03-23T06:26:36;6.13;;;2.93;;
9117;SDS011;4594;50.994;7.126;2024-03-23T06:29:02;5.97;;;3.60;;
9117;SDS011;4594;50.994;7.126;2024-03-23T06:31:28;4.63;;;3.60;;
9117;SDS011;4594;50.994;7.126;2024-03-23T06:33:55;5.80;;;3.30;;
9117;SDS011;4594;50.994;7.126;2024-03-23T06:36:20;7.53;;;3.30;;
9117;SDS011;4594;50.994;7.126;2024-03-23T06:38:47;5.63;;;3.80;;
9117;SDS011;4594;50.994;7.126;2024-03-23T06:41:13;5.50;;;3.07;;
9117;SDS011;4594;50.994;7.126;2024-03-23T06:43:39;7.87;;;3.67;;
9117;SDS011;4594;50.994;7.126;2024-03-23T06:46:05;10.27;;;3.90;;
9117;SDS011;4594;50.994;7.126;2024-03-23T06:48:31;2.80;;;2.57;;
9117;SDS011;4594;50.994;7.126;2024-03-23T06:50:57;7.80;;;3.20;;
9117;SDS011;4594;50.994;7.126;2024-03-23T06:53:22;4.10;;;2.97;;
9117;SDS011;4594;50.994;7.126;2024-03-23T06:55:52;8.53;;;3.27;;
9117;SDS011;4594;50.994;7.126;2024-03-23T06:58:23;9.77;;;3.10;;
9117;SDS011;4594;50.994;7.126;2024-03-23T07:00:49;8.53;;;3.73;;
9117;SDS011;4594;50.994;7.126;2024-03-23T07:03:18;6.87;;;3.20;;
9117;SDS011;4594;50.994;7.126;2024-03-23T07:05:46;4.63;;;3.23;;
9117;SDS011;4594;50.994;7.126;2024-03-23T07:08:12;10.37;;;3.00;;
9117;SDS011;4594;50.994;7.126;2024-03-23T07:10:40;6.97;;;3.20;;
9117;SDS011;4594;50.994;7.126;2024-03-23T07:13:06;5.77;;;3.30;;
9117;SDS011;4594;50.994;7.126;2024-03-23T07:15:33;4.97;;;3.23;;
9117;SDS011;4594;50.994;7.126;2024-03-23T07:17:59;7.33;;;3.23;;
9117;SDS011;4594;50.994;7.126;2024-03-23T07:20:24;5.13;;;3.30;;
9117;SDS011;4594;50.994;7.126;2024-03-23T07:22:50;6.73;;;3.27;;
9117;SDS011;4594;50.994;7.126;2024-03-23T07:25:16;5.90;;;3.57;;
9117;SDS011;4594;50.994;7.126;2024-03-23T07:28:02;9.47;;;3.73;;
9117;SDS011;4594;50.994;7.126;2024-03-23T07:30:39;7.80;;;3.90;;
9117;SDS011;4594;50.994;7.126;2024-03-23T07:33:05;9.13;;;3.93;;
9117;SDS011;4594;50.994;7.126;2024-03-23T07:35:31;8.13;;;4.10;;
9117;SDS011;4594;50.994;7.126;2024-03-23T07:37:56;6.70;;;3.20;;
9117;SDS011;4594;50.994;7.126;2024-03-23T07:40:22;7.90;;;3.80;;
9117;SDS011;4594;50.994;7.126;2024-03-23T07:42:48;7.50;;;3.93;;
9117;SDS011;4594;50.994;7.126;2024-03-23T07:45:13;4.43;;;3.33;;
9117;SDS011;4594;50.994;7.126;2024-03-23T07:47:39;5.83;;;3.80;;
9117;SDS011;4594;50.994;7.126;2024-03-23T07:50:05;5.17;;;3.30;;
9117;SDS011;4594;50.994;7.126;2024-03-23T07:52:31;13.83;;;3.60;;
9117;SDS011;4594;50.994;7.126;2024-03-23T07:54:57;9.30;;;4.10;;
9117;SDS011;4594;50.994;7.126;2024-03-23T07:57:22;7.63;;;4.03;;
9117;SDS011;4594;50.994;7.126;2024-03-23T07:59:49;8.00;;;3.67;;
9117;SDS011;4594;50.994;7.126;2024-03-23T08:02:14;6.53;;;4.03;;
9117;SDS011;4594;50.994;7.126;2024-03-23T08:04:40;8.30;;;4.03;;
9117;SDS011;4594;50.994;7.126;2024-03-23T08:07:06;8.90;;;4.10;;
9117;SDS011;4594;50.994;7.126;2024-03-23T08:09:31;8.50;;;3.80;;
9117;SDS011;4594;50.994;7.126;2024-03-23T08:11:57;6.83;;;3.90;;
9117;SDS011;4594;50.994;7.126;2024-03-23T08:14:22;9.37;;;4.37;;
9117;SDS011;4594;50.994;7.126;2024-03-23T08:16:48;10.33;;;4.43;;
9117;SDS011;4594;50.994;7.126;2024-03-23T08:19:15;7.80;;;4.63;;
9117;SDS011;4594;50.994;7.126;2024-03-23T08:21:40;8.90;;;5.20;;
9117;SDS011;4594;50.994;7.126;2024-03-23T08:24:06;10.07;;;4.57;;
9117;SDS011;4594;50.994;7.126;2024-03-23T08:26:32;10.47;;;4.97;;
9117;SDS011;4594;50.994;7.126;2024-03-23T08:28:58;9.73;;;4.43;;
9117;SDS011;4594;50.994;7.126;2024-03-23T08:31:24;6.30;;;4.27;;
9117;SDS011;4594;50.994;7.126;2024-03-23T08:33:49;9.33;;;4.43;;
9117;SDS011;4594;50.994;7.126;2024-03-23T08:36:15;13.90;;;4.43;;
9117;SDS011;4594;50.994;7.126;2024-03-23T08:38:41;8.70;;;3.77;;
9117;SDS011;4594;50.994;7.126;2024-03-23T08:41:10;4.33;;;3.53;;
9117;SDS011;4594;50.994;7.126;2024-03-23T08:43:37;6.93;;;3.40;;
9117;SDS011;4594;50.994;7.126;2024-03-23T08:46:05;7.47;;;2.80;;
9117;SDS011;4594;50.994;7.126;2024-03-23T08:48:33;5.07;;;2.67;;
9117;SDS011;4594;50.994;7.126;2024-03-23T08:51:07;13.53;;;3.10;;
9117;SDS011;4594;50.994;7.126;2024-03-23T08:53:34;5.00;;;2.90;;
9117;SDS011;4594;50.994;7.126;2024-03-23T08:56:01;7.60;;;2.97;;
9117;SDS011;4594;50.994;7.126;2024-03-23T08:58:29;2.70;;;2.17;;
9117;SDS011;4594;50.994;7.126;2024-03-23T09:00:57;4.73;;;2.40;;
9117;SDS011;4594;50.994;7.126;2024-03-23T09:03:30;4.80;;;2.60;;
9117;SDS011;4594;50.994;7.126;2024-03-23T09:05:56;4.13;;;2.23;;
9117;SDS011;4594;50.994;7.126;2024-03-23T09:08:23;7.30;;;2.70;;
9117;SDS011;4594;50.994;7.126;2024-03-23T09:10:49;6.07;;;2.90;;
9117;SDS011;4594;50.994;7.126;2024-03-23T09:13:16;4.90;;;2.90;;
9117;SDS011;4594;50.994;7.126;2024-03-23T09:15:51;9.70;;;2.90;;
9117;SDS011;4594;50.994;7.126;2024-03-23T09:18:21;5.87;;;3.10;;
9117;SDS011;4594;50.994;7.126;2024-03-23T09:20:47;7.07;;;3.27;;
9117;SDS011;4594;50.994;7.126;2024-03-23T09:23:13;4.53;;;2.57;;
9117;SDS011;4594;50.994;7.126;2024-03-23T09:25:39;9.37;;;3.03;;
9117;SDS011;4594;50.994;7.126;2024-03-23T09:28:08;9.97;;;3.00;;
9117;SDS011;4594;50.994;7.126;2024-03-23T09:30:34;7.00;;;3.17;;
9117;SDS011;4594;50.994;7.126;2024-03-23T09:33:02;6.13;;;2.63;;
9117;SDS011;4594;50.994;7.126;2024-03-23T09:35:28;8.33;;;2.97;;
9117;SDS011;4594;50.994;7.126;2024-03-23T09:37:54;6.50;;;2.50;;
9117;SDS011;4594;50.994;7.126;2024-03-23T09:40:20;6.40;;;2.73;;
9117;SDS011;4594;50.994;7.126;2024-03-23T09:42:49;7.13;;;2.50;;
9117;SDS011;4594;50.994;7.126;2024-03-23T09:45:23;9.53;;;2.10;;
9117;SDS011;4594;50.994;7.126;2024-03-23T09:47:54;6.10;;;2.37;;
9117;SDS011;4594;50.994;7.126;2024-03-23T09:50:21;6.30;;;2.00;;
9117;SDS011;4594;50.994;7.126;2024-03-23T09:52:48;3.97;;;1.83;;
9117;SDS011;4594;50.994;7.126;2024-03-23T09:55:14;3.50;;;1.73;;
9117;SDS011;4594;50.994;7.126;2024-03-23T09:57:41;1.83;;;1.50;;
9117;SDS011;4594;50.994;7.126;2024-03-23T10:00:07;3.53;;;2.23;;
9117;SDS011;4594;50.994;7.126;2024-03-23T10:02:34;4.60;;;2.30;;
9117;SDS011;4594;50.994;7.126;2024-03-23T10:05:00;3.27;;;1.90;;
9117;SDS011;4594;50.994;7.126;2024-03-23T10:07:27;4.73;;;2.10;;
9117;SDS011;4594;50.994;7.126;2024-03-23T10:09:55;4.97;;;2.40;;
9117;SDS011;4594;50.994;7.126;2024-03-23T10:12:22;5.37;;;2.10;;
9117;SDS011;4594;50.994;7.126;2024-03-23T10:14:49;5.47;;;2.47;;
9117;SDS011;4594;50.994;7.126;2024-03-23T10:17:16;6.53;;;2.20;;
9117;SDS011;4594;50.994;7.126;2024-03-23T10:19:46;2.97;;;1.80;;
9117;SDS011;4594;50.994;7.126;2024-03-23T10:22:17;3.93;;;2.37;;
9117;SDS011;4594;50.994;7.126;2024-03-23T10:24:52;4.13;;;2.17;;
9117;SDS011;4594;50.994;7.126;2024-03-23T10:27:19;3.77;;;2.00;;
9117;SDS011;4594;50.994;7.126;2024-03-23T10:29:46;5.73;;;2.40;;
9117;SDS011;4594;50.994;7.126;2024-03-23T10:32:14;2.53;;;1.90;;
9117;SDS011;4594;50.994;7.126;2024-03-23T10:34:42;2.80;;;1.77;;
9117;SDS011;4594;50.994;7.126;2024-03-23T10:37:09;4.30;;;1.87;;
9117;SDS011;4594;50.994;7.126;2024-03-23T10:39:35;4.10;;;1.77;;
9117;SDS011;4594;50.994;7.126;2024-03-23T10:42:04;3.47;;;1.67;;
9117;SDS011;4594;50.994;7.126;2024-03-23T10:44:32;3.67;;;1.53;;
9117;SDS011;4594;50.994;7.126;2024-03-23T10:46:59;1.83;;;1.70;;
9117;SDS011;4594;50.994;7.126;2024-03-23T10:49:28;1.60;;;1.50;;
9117;SDS011;4594;50.994;7.126;2024-03-23T10:51:57;3.57;;;1.77;;
9117;SDS011;4594;50.994;7.126;2024-03-23T10:54:32;5.73;;;1.93;;
9117;SDS011;4594;50.994;7.126;2024-03-23T10:57:03;3.27;;;1.80;;
9117;SDS011;4594;50.994;7.126;2024-03-23T10:59:59;2.20;;;1.40;;
9117;SDS011;4594;50.994;7.126;2024-03-23T11:02:28;1.30;;;1.30;;
9117;SDS011;4594;50.994;7.126;2024-03-23T11:04:54;1.63;;;1.53;;
9117;SDS011;4594;50.994;7.126;2024-03-23T11:09:49;4.17;;;1.80;;
9117;SDS011;4594;50.994;7.126;2024-03-23T11:14:58;1.60;;;1.50;;
9117;SDS011;4594;50.994;7.126;2024-03-23T11:17:30;1.77;;;1.63;;
9117;SDS011;4594;50.994;7.126;2024-03-23T11:20:00;1.70;;;1.70;;
9117;SDS011;4594;50.994;7.126;2024-03-23T11:27:49;2.60;;;2.23;;
9117;SDS011;4594;50.994;7.126;2024-03-23T11:32:52;2.23;;;2.03;;
9117;SDS011;4594;50.994;7.126;2024-03-23T11:35:32;1.67;;;1.67;;
9117;SDS011;4594;50.994;7.126;2024-03-23T11:40:27;2.10;;;1.90;;
9117;SDS011;4594;50.994;7.126;2024-03-23T11:45:50;1.80;;;1.80;;
9117;SDS011;4594;50.994;7.126;2024-03-23T11:48:18;1.70;;;1.70;;
9117;SDS011;4594;50.994;7.126;2024-03-23T11:50:47;1.80;;;1.80;;
9117;SDS011;4594;50.994;7.126;2024-03-23T11:53:20;2.27;;;2.13;;
9117;SDS011;4594;50.994;7.126;2024-03-23T11:58:19;2.17;;;2.03;;
9117;SDS011;4594;50.994;7.126;2024-03-23T12:03:29;2.00;;;1.90;;
9117;SDS011;4594;50.994;7.126;2024-03-23T12:06:00;1.80;;;1.80;;
9117;SDS011;4594;50.994;7.126;2024-03-23T12:08:36;1.97;;;1.93;;
9117;SDS011;4594;50.994;7.126;2024-03-23T12:11:08;2.03;;;1.80;;
9117;SDS011;4594;50.994;7.126;2024-03-23T12:13:43;2.33;;;2.07;;
9117;SDS011;4594;50.994;7.126;2024-03-23T12:16:16;2.83;;;2.10;;
9117;SDS011;4594;50.994;7.126;2024-03-23T12:18:46;2.23;;;2.10;;
9117;SDS011;4594;50.994;7.126;2024-03-23T12:21:18;2.13;;;2.07;;
9117;SDS011;4594;50.994;7.126;2024-03-23T12:23:44;2.27;;;2.10;;
9117;SDS011;4594;50.994;7.126;2024-03-23T12:26:11;2.83;;;2.63;;
9117;SDS011;4594;50.994;7.126;2024-03-23T12:28:38;3.20;;;2.43;;
9117;SDS011;4594;50.994;7.126;2024-03-23T12:31:04;2.50;;;2.20;;
9117;SDS011;4594;50.994;7.126;2024-03-23T12:33:30;4.83;;;2.10;;
9117;SDS011;4594;50.994;7.126;2024-03-23T12:35:56;2.53;;;2.10;;
9117;SDS011;4594;50.994;7.126;2024-03-23T12:38:22;2.20;;;2.00;;
9117;SDS011;4594;50.994;7.126;2024-03-23T12:40:51;6.70;;;2.03;;
9117;SDS011;4594;50.994;7.126;2024-03-23T12:43:17;3.50;;;2.07;;
9117;SDS011;4594;50.994;7.126;2024-03-23T12:45:47;2.20;;;2.13;;
9117;SDS011;4594;50.994;7.126;2024-03-23T12:48:14;2.27;;;2.10;;
9117;SDS011;4594;50.994;7.126;2024-03-23T12:50:40;2.30;;;2.10;;
9117;SDS011;4594;50.994;7.126;2024-03-23T12:53:06;1.97;;;1.97;;
9117;SDS011;4594;50.994;7.126;2024-03-23T12:55:34;2.23;;;2.03;;
9117;SDS011;4594;50.994;7.126;2024-03-23T12:58:00;2.00;;;1.90;;
9117;SDS011;4594;50.994;7.126;2024-03-23T13:00:26;1.80;;;1.80;;
9117;SDS011;4594;50.994;7.126;2024-03-23T13:02:52;1.83;;;1.73;;
9117;SDS011;4594;50.994;7.126;2024-03-23T13:05:18;1.90;;;1.90;;
9117;SDS011;4594;50.994;7.126;2024-03-23T13:07:44;2.00;;;1.90;;
9117;SDS011;4594;50.994;7.126;2024-03-23T13:10:09;2.07;;;1.80;;
9117;SDS011;4594;50.994;7.126;2024-03-23T13:12:35;1.70;;;1.70;;
9117;SDS011;4594;50.994;7.126;2024-03-23T13:15:01;2.47;;;1.67;;
9117;SDS011;4594;50.994;7.126;2024-03-23T13:17:27;1.70;;;1.60;;
9117;SDS011;4594;50.994;7.126;2024-03-23T13:19:53;2.63;;;1.80;;
9117;SDS011;4594;50.994;7.126;2024-03-23T13:22:21;2.10;;;2.00;;
9117;SDS011;4594;50.994;7.126;2024-03-23T13:24:47;1.83;;;1.83;;
9117;SDS011;4594;50.994;7.126;2024-03-23T13:27:12;2.20;;;1.87;;
9117;SDS011;4594;50.994;7.126;2024-03-23T13:29:38;1.73;;;1.73;;
9117;SDS011;4594;50.994;7.126;2024-03-23T13:32:04;2.67;;;1.73;;
9117;SDS011;4594;50.994;7.126;2024-03-23T13:34:31;2.03;;;1.93;;
9117;SDS011;4594;50.994;7.126;2024-03-23T13:36:58;2.00;;;1.90;;
9117;SDS011;4594;50.994;7.126;2024-03-23T13:39:24;1.93;;;1.87;;
9117;SDS011;4594;50.994;7.126;2024-03-23T13:41:52;2.27;;;2.07;;
9117;SDS011;4594;50.994;7.126;2024-03-23T13:44:20;2.43;;;2.33;;
9117;SDS011;4594;50.994;7.126;2024-03-23T13:46:46;2.27;;;2.17;;
9117;SDS011;4594;50.994;7.126;2024-03-23T13:51:54;2.67;;;2.30;;
9117;SDS011;4594;50.994;7.126;2024-03-23T13:54:23;2.30;;;2.10;;
9117;SDS011;4594;50.994;7.126;2024-03-23T13:56:50;2.13;;;1.90;;
9117;SDS011;4594;50.994;7.126;2024-03-23T13:59:17;2.50;;;2.30;;
9117;SDS011;4594;50.994;7.126;2024-03-23T14:01:46;2.20;;;2.10;;
9117;SDS011;4594;50.994;7.126;2024-03-23T14:04:12;1.97;;;1.90;;
9117;SDS011;4594;50.994;7.126;2024-03-23T14:06:38;2.63;;;2.40;;
9117;SDS011;4594;50.994;7.126;2024-03-23T14:09:05;3.13;;;2.70;;
9117;SDS011;4594;50.994;7.126;2024-03-23T14:11:34;2.63;;;2.33;;
9117;SDS011;4594;50.994;7.126;2024-03-23T14:14:02;4.77;;;2.70;;
9117;SDS011;4594;50.994;7.126;2024-03-23T14:16:32;4.83;;;2.40;;
9117;SDS011;4594;50.994;7.126;2024-03-23T14:18:58;2.13;;;1.93;;
9117;SDS011;4594;50.994;7.126;2024-03-23T14:21:24;1.77;;;1.77;;
9117;SDS011;4594;50.994;7.126;2024-03-23T14:23:50;5.23;;;2.60;;
9117;SDS011;4594;50.994;7.126;2024-03-23T14:26:16;2.37;;;2.13;;
9117;SDS011;4594;50.994;7.126;2024-03-23T14:28:42;2.00;;;1.90;;
9117;SDS011;4594;50.994;7.126;2024-03-23T14:31:07;1.97;;;1.90;;
9117;SDS011;4594;50.994;7.126;2024-03-23T14:33:36;2.23;;;2.10;;
9117;SDS011;4594;50.994;7.126;2024-03-23T14:36:03;2.00;;;1.90;;
9117;SDS011;4594;50.994;7.126;2024-03-23T14:38:30;1.90;;;1.80;;
9117;SDS011;4594;50.994;7.126;2024-03-23T14:40:59;2.27;;;2.07;;
9117;SDS011;4594;50.994;7.126;2024-03-23T14:43:27;1.90;;;1.80;;
9117;SDS011;4594;50.994;7.126;2024-03-23T14:48:35;2.20;;;2.00;;
9117;SDS011;4594;50.994;7.126;2024-03-23T14:51:01;2.10;;;2.00;;
9117;SDS011;4594;50.994;7.126;2024-03-23T14:53:33;2.47;;;2.27;;
9117;SDS011;4594;50.994;7.126;2024-03-23T14:56:01;2.17;;;2.07;;
9117;SDS011;4594;50.994;7.126;2024-03-23T14:58:28;2.13;;;2.03;;
9117;SDS011;4594;50.994;7.126;2024-03-23T15:01:15;2.20;;;2.10;;
9117;SDS011;4594;50.994;7.126;2024-03-23T15:03:40;2.87;;;2.60;;
9117;SDS011;4594;50.994;7.126;2024-03-23T15:06:08;2.10;;;2.10;;
9117;SDS011;4594;50.994;7.126;2024-03-23T15:08:36;2.10;;;2.00;;
9117;SDS011;4594;50.994;7.126;2024-03-23T15:11:03;4.80;;;2.57;;
9117;SDS011;4594;50.994;7.126;2024-03-23T15:13:32;3.87;;;2.37;;
9117;SDS011;4594;50.994;7.126;2024-03-23T15:16:02;2.17;;;2.03;;
9117;SDS011;4594;50.994;7.126;2024-03-23T15:18:29;2.37;;;2.27;;
9117;SDS011;4594;50.994;7.126;2024-03-23T15:20:56;2.53;;;2.33;;
9117;SDS011;4594;50.994;7.126;2024-03-23T15:23:32;2.60;;;2.40;;
9117;SDS011;4594;50.994;7.126;2024-03-23T15:25:59;2.53;;;2.40;;
9117;SDS011;4594;50.994;7.126;2024-03-23T15:28:26;2.30;;;2.20;;
9117;SDS011;4594;50.994;7.126;2024-03-23T15:31:08;2.73;;;2.63;;
9117;SDS011;4594;50.994;7.126;2024-03-23T15:33:37;14.50;;;8.30;;
9117;SDS011;4594;50.994;7.126;2024-03-23T15:36:04;14.73;;;7.83;;
9117;SDS011;4594;50.994;7.126;2024-03-23T15:38:31;8.53;;;5.43;;
9117;SDS011;4594;50.994;7.126;2024-03-23T15:40:57;6.87;;;4.40;;
9117;SDS011;4594;50.994;7.126;2024-03-23T15:43:24;5.73;;;4.07;;
9117;SDS011;4594;50.994;7.126;2024-03-23T15:45:57;4.07;;;2.90;;
9117;SDS011;4594;50.994;7.126;2024-03-23T15:48:30;3.17;;;2.70;;
9117;SDS011;4594;50.994;7.126;2024-03-23T15:50:57;2.70;;;2.60;;
9117;SDS011;4594;50.994;7.126;2024-03-23T15:53:30;2.20;;;2.10;;
9117;SDS011;4594;50.994;7.126;2024-03-23T15:55:59;2.80;;;2.60;;
9117;SDS011;4594;50.994;7.126;2024-03-23T15:58:27;3.40;;;2.70;;
9117;SDS011;4594;50.994;7.126;2024-03-23T16:00:57;2.57;;;2.37;;
9117;SDS011;4594;50.994;7.126;2024-03-23T16:03:24;3.47;;;3.23;;
9117;SDS011;4594;50.994;7.126;2024-03-23T16:08:25;2.63;;;2.53;;
9117;SDS011;4594;50.994;7.126;2024-03-23T16:10:51;3.20;;;2.80;;
9117;SDS011;4594;50.994;7.126;2024-03-23T16:13:17;3.73;;;3.23;;
9117;SDS011;4594;50.994;7.126;2024-03-23T16:15:44;3.67;;;3.30;;
9117;SDS011;4594;50.994;7.126;2024-03-23T16:18:10;9.70;;;6.37;;
9117;SDS011;4594;50.994;7.126;2024-03-23T16:20:36;7.73;;;4.70;;
9117;SDS011;4594;50.994;7.126;2024-03-23T16:23:03;8.50;;;4.70;;
9117;SDS011;4594;50.994;7.126;2024-03-23T16:25:29;4.50;;;3.57;;
9117;SDS011;4594;50.994;7.126;2024-03-23T16:27:55;6.03;;;4.73;;
9117;SDS011;4594;50.994;7.126;2024-03-23T16:30:21;4.90;;;3.53;;
9117;SDS011;4594;50.994;7.126;2024-03-23T16:32:48;3.33;;;3.13;;
9117;SDS011;4594;50.994;7.126;2024-03-23T16:35:13;3.30;;;3.00;;
9117;SDS011;4594;50.994;7.126;2024-03-23T16:37:40;4.93;;;3.57;;
9117;SDS011;4594;50.994;7.126;2024-03-23T16:40:06;3.43;;;3.23;;
9117;SDS011;4594;50.994;7.126;2024-03-23T16:42:34;4.87;;;4.23;;